Time;durP1;ratioP1;P1;durP2;ratioP2;P2;SDS_P1;SDS_P2;PMS_P1;PMS_P2;Temp;Humidity;BMP_temperature;BMP_pressure;BME280_temperature;BME280_humidity;BME280_pressure;Samples;Min_cycle;Max_cycle;Signal;HPM_P1;HPM_P2
2022/01/26 00:07:53;;;;;;;82.03;37.25;;;3.00;99.90;;;;;;5154438;27;20050;-76
2022/01/26 00:10:19;;;;;;;75.43;36.40;;;3.00;99.90;;;;;;5140969;27;20050;-77
2022/01/26 00:12:46;;;;;;;83.97;40.45;;;3.00;99.90;;;;;;5151855;27;20046;-77
2022/01/26 00:15:12;;;;;;;85.43;41.22;;;3.00;99.90;;;;;;5151992;27;20038;-78
2022/01/26 00:17:39;;;;;;;87.85;40.83;;;3.00;99.90;;;;;;5141223;27;20043;-78
2022/01/26 00:20:13;;;;;;;78.53;37.83;;;3.00;99.90;;;;;;5144910;27;20099;-76
2022/01/26 00:22:55;;;;;;;78.45;36.90;;;3.00;99.90;;;;;;5149561;27;20074;-78
2022/01/26 00:25:33;;;;;;;77.57;36.78;;;3.00;99.90;;;;;;5133613;27;20054;-76
2022/01/26 00:28:19;;;;;;;72.53;37.00;;;3.00;99.90;;;;;;5142233;27;20047;-77
2022/01/26 00:38:59;;;;;;;75.05;35.60;;;3.00;99.90;;;;;;5129336;27;20046;-77
2022/01/26 00:41:32;;;;;;;78.97;39.65;;;3.00;99.90;;;;;;5122538;27;20053;-77
2022/01/26 00:43:59;;;;;;;88.38;37.80;;;3.00;99.90;;;;;;5123628;27;20046;-77
2022/01/26 00:46:25;;;;;;;82.43;35.45;;;2.90;99.90;;;;;;5121406;27;20047;-78
2022/01/26 00:48:52;;;;;;;79.43;37.17;;;3.00;99.90;;;;;;5120421;27;20043;-78
2022/01/26 00:51:20;;;;;;;70.53;36.15;;;3.00;99.90;;;;;;5117773;27;20486;-78
2022/01/26 00:53:50;;;;;;;78.60;36.42;;;2.90;99.90;;;;;;5135544;27;20137;-78
2022/01/26 00:56:17;;;;;;;75.15;35.53;;;2.90;99.90;;;;;;5144417;27;20107;-78
2022/01/26 00:58:43;;;;;;;71.65;35.63;;;2.80;99.90;;;;;;5135746;27;20054;-78
2022/01/26 01:01:10;;;;;;;73.07;34.88;;;2.90;99.90;;;;;;5129198;27;20039;-78
2022/01/26 01:03:39;;;;;;;71.80;36.05;;;2.90;99.90;;;;;;5116238;27;20043;-77
2022/01/26 01:06:12;;;;;;;67.47;35.17;;;2.90;99.90;;;;;;5144313;27;20046;-78
2022/01/26 01:08:40;;;;;;;70.85;33.35;;;2.80;99.90;;;;;;5122168;27;20080;-77
2022/01/26 01:11:06;;;;;;;71.07;33.45;;;2.80;99.90;;;;;;5122738;27;20149;-77
2022/01/26 01:13:35;;;;;;;74.72;34.28;;;2.90;99.90;;;;;;5149390;27;20051;-76
2022/01/26 01:16:02;;;;;;;87.75;35.67;;;2.80;99.90;;;;;;5138680;27;20497;-78
2022/01/26 01:18:36;;;;;;;78.85;32.83;;;2.80;99.90;;;;;;5123526;27;20046;-77
2022/01/26 01:21:35;;;;;;;76.78;33.83;;;2.80;99.90;;;;;;5144723;27;20112;-77
2022/01/26 01:27:03;;;;;;;77.13;35.50;;;2.90;99.90;;;;;;5070529;27;20062;-78
2022/01/26 01:29:35;;;;;;;74.63;33.92;;;2.80;99.90;;;;;;5127650;27;20398;-77
2022/01/26 01:32:10;;;;;;;70.30;34.60;;;2.90;99.90;;;;;;5133690;27;20046;-78
2022/01/26 01:34:39;;;;;;;66.53;33.05;;;2.80;99.90;;;;;;5123410;27;20058;-77
2022/01/26 01:37:07;;;;;;;63.08;31.40;;;2.80;99.90;;;;;;5128034;27;20486;-77
2022/01/26 01:39:33;;;;;;;58.65;30.20;;;2.80;99.90;;;;;;5121699;27;20053;-77
2022/01/26 01:42:00;;;;;;;75.32;32.83;;;2.80;99.90;;;;;;5138673;27;20046;-77
2022/01/26 01:44:26;;;;;;;75.97;34.05;;;2.70;99.90;;;;;;5145209;27;20054;-78
2022/01/26 01:46:54;;;;;;;66.72;32.00;;;2.80;99.90;;;;;;5146008;27;20047;-78
2022/01/26 01:49:21;;;;;;;70.25;33.53;;;2.80;99.90;;;;;;5118276;27;20111;-78
2022/01/26 01:51:51;;;;;;;76.65;32.88;;;2.80;99.90;;;;;;5137485;27;20508;-78
2022/01/26 01:54:18;;;;;;;64.30;29.08;;;2.80;99.90;;;;;;5146948;27;20382;-76
2022/01/26 01:56:45;;;;;;;71.88;33.65;;;2.80;99.90;;;;;;5121446;27;20056;-79
2022/01/26 01:59:12;;;;;;;64.93;32.00;;;2.80;99.90;;;;;;5123753;27;20076;-78
2022/01/26 02:01:38;;;;;;;66.28;31.80;;;2.80;99.90;;;;;;5130464;27;20046;-78
2022/01/26 02:04:05;;;;;;;68.22;31.55;;;2.70;99.90;;;;;;5124751;27;20122;-78
2022/01/26 02:06:31;;;;;;;77.65;34.47;;;2.80;99.90;;;;;;5127170;27;20077;-78
2022/01/26 02:08:58;;;;;;;69.60;33.45;;;2.80;99.90;;;;;;5117340;27;20501;-78
2022/01/26 02:11:24;;;;;;;70.80;33.33;;;2.80;99.90;;;;;;5148824;27;20041;-77
2022/01/26 02:13:59;;;;;;;74.75;32.05;;;2.80;99.90;;;;;;5143303;27;20043;-78
2022/01/26 02:16:30;;;;;;;79.22;32.72;;;2.80;99.90;;;;;;5123859;27;20538;-78
2022/01/26 02:19:25;;;;;;;72.10;35.10;;;2.70;99.90;;;;;;5151067;27;20397;-78
2022/01/26 02:49:12;;;;;;;74.32;34.88;;;2.70;99.90;;;;;;5119550;27;20148;-78
2022/01/26 02:49:52;;;;;;;76.30;37.40;;;2.70;99.90;;;;;;5113969;27;20134;-77
2022/01/26 02:55:23;;;;;;;83.15;35.47;;;2.70;99.90;;;;;;5079497;28;20130;-77
2022/01/26 03:00:51;;;;;;;78.70;36.80;;;2.60;99.90;;;;;;5133874;27;1280970;-75
2022/01/26 03:03:21;;;;;;;85.20;38.90;;;2.60;99.90;;;;;;5134821;27;20047;-77
2022/01/26 03:05:53;;;;;;;85.32;37.40;;;2.60;99.90;;;;;;5144578;27;20050;-77
2022/01/26 03:08:28;;;;;;;70.88;36.78;;;2.60;99.90;;;;;;5156718;27;20054;-75
2022/01/26 03:10:57;;;;;;;80.07;39.22;;;2.50;99.90;;;;;;5161841;27;20118;-77
2022/01/26 03:13:28;;;;;;;92.57;37.80;;;2.50;99.90;;;;;;5135582;27;20047;-75
2022/01/26 03:15:59;;;;;;;;;;;2.50;99.90;;;;;;5139119;27;20383;-77
2022/01/26 03:18:51;;;;;;;84.15;36.60;;;2.60;99.90;;;;;;5139518;27;20359;-76
2022/01/26 03:21:21;;;;;;;84.30;38.15;;;2.60;99.90;;;;;;5160826;27;20046;-76
2022/01/26 03:29:39;;;;;;;89.00;39.95;;;2.50;99.90;;;;;;5133861;27;20509;-76
2022/01/26 03:32:45;;;;;;;83.13;38.85;;;2.50;99.90;;;;;;5146662;27;20042;-75
2022/01/26 03:35:14;;;;;;;85.97;40.67;;;2.50;99.90;;;;;;5134473;27;20146;-77
2022/01/26 03:37:49;;;;;;;81.75;35.85;;;2.50;99.90;;;;;;5144844;27;20117;-77
2022/01/26 03:40:16;;;;;;;86.47;39.92;;;2.50;99.90;;;;;;5159439;27;20473;-75
2022/01/26 03:42:42;;;;;;;88.03;40.65;;;2.50;99.90;;;;;;5144323;27;20370;-77
2022/01/26 03:45:09;;;;;;;83.25;35.20;;;2.40;99.90;;;;;;5149922;27;20393;-76
2022/01/26 03:47:35;;;;;;;81.22;37.17;;;2.40;99.90;;;;;;5131992;27;20497;-77
2022/01/26 03:50:02;;;;;;;90.30;38.85;;;2.40;99.90;;;;;;5156485;27;20474;-77
2022/01/26 03:52:28;;;;;;;77.78;35.60;;;2.40;99.90;;;;;;5153175;27;20096;-76
2022/01/26 03:54:55;;;;;;;84.53;41.30;;;2.40;99.90;;;;;;5144063;27;20055;-77
2022/01/26 03:57:21;;;;;;;83.82;37.47;;;2.40;99.90;;;;;;5151890;27;20390;-76
2022/01/26 03:59:48;;;;;;;84.22;39.22;;;2.40;99.90;;;;;;5137468;27;20057;-77
2022/01/26 04:02:14;;;;;;;86.05;38.67;;;2.50;99.90;;;;;;5134473;27;20058;-77
2022/01/26 04:04:47;;;;;;;86.70;39.45;;;2.50;99.90;;;;;;5139935;27;20051;-77
2022/01/26 04:07:13;;;;;;;95.80;40.42;;;2.50;99.90;;;;;;5149062;27;20051;-77
2022/01/26 04:09:40;;;;;;;87.82;37.75;;;2.50;99.90;;;;;;5161730;27;20043;-77
2022/01/26 04:12:06;;;;;;;97.05;38.75;;;2.50;99.90;;;;;;5142019;27;20051;-76
2022/01/26 04:14:34;;;;;;;100.78;39.03;;;2.40;99.90;;;;;;5127533;27;20043;-76
2022/01/26 04:17:01;;;;;;;89.63;38.88;;;2.40;99.90;;;;;;5125506;27;20050;-77
2022/01/26 04:19:30;;;;;;;96.53;40.30;;;2.40;99.90;;;;;;5122625;27;20070;-76
2022/01/26 04:22:07;;;;;;;92.93;39.55;;;2.40;99.90;;;;;;5129136;27;20043;-78
2022/01/26 04:24:38;;;;;;;95.57;39.00;;;2.30;99.90;;;;;;5136266;27;20058;-76
2022/01/26 04:27:13;;;;;;;;;;;2.40;99.90;;;;;;5135767;27;20043;-77
2022/01/26 04:29:40;;;;;;;80.18;35.63;;;2.40;99.90;;;;;;5122968;27;19985;-77
2022/01/26 04:32:07;;;;;;;94.07;37.10;;;2.40;99.90;;;;;;5134527;27;20500;-77
2022/01/26 04:34:35;;;;;;;91.03;35.88;;;2.40;99.90;;;;;;5153661;27;20046;-77
2022/01/26 04:37:09;;;;;;;76.38;36.33;;;2.40;99.90;;;;;;5127544;27;20055;-77
2022/01/26 04:39:41;;;;;;;74.47;35.75;;;2.40;99.90;;;;;;5143776;27;20163;-77
2022/01/26 04:42:12;;;;;;;69.70;35.20;;;2.40;99.90;;;;;;5140375;27;20042;-77
2022/01/26 04:44:44;;;;;;;85.78;37.08;;;2.30;99.90;;;;;;5149110;27;20055;-78
2022/01/26 04:47:10;;;;;;;87.68;36.00;;;2.30;99.90;;;;;;5141499;27;20074;-77
2022/01/26 04:49:37;;;;;;;81.03;36.17;;;2.30;99.90;;;;;;5137628;27;20047;-77
2022/01/26 04:52:03;;;;;;;86.40;38.08;;;2.30;99.90;;;;;;5126700;27;20050;-76
2022/01/26 04:54:30;;;;;;;84.15;36.83;;;2.40;99.90;;;;;;5137910;27;20058;-77
2022/01/26 04:56:56;;;;;;;73.68;34.75;;;2.40;99.90;;;;;;5117420;27;20063;-78
2022/01/26 04:59:23;;;;;;;76.68;35.33;;;2.40;99.90;;;;;;5129276;27;20055;-77
2022/01/26 05:01:49;;;;;;;82.10;36.92;;;2.40;99.90;;;;;;5127760;27;20057;-77
2022/01/26 05:04:16;;;;;;;89.85;38.28;;;2.40;99.90;;;;;;5130806;27;20414;-77
2022/01/26 05:06:42;;;;;;;78.57;33.53;;;2.40;99.90;;;;;;5122284;27;20521;-77
2022/01/26 05:09:09;;;;;;;87.32;38.50;;;2.40;99.90;;;;;;5115015;27;20402;-77
2022/01/26 05:11:38;;;;;;;76.00;35.05;;;2.40;99.90;;;;;;5148444;27;20483;-77
2022/01/26 05:14:05;;;;;;;78.72;34.63;;;2.40;99.90;;;;;;5128157;27;20053;-77
2022/01/26 05:16:31;;;;;;;78.00;35.05;;;2.40;99.90;;;;;;5129593;27;20124;-77
2022/01/26 05:18:58;;;;;;;74.75;34.53;;;2.40;99.90;;;;;;5123793;27;20051;-78
2022/01/26 05:21:25;;;;;;;80.15;34.58;;;2.40;99.90;;;;;;5124599;27;20053;-78
2022/01/26 05:23:51;;;;;;;67.25;33.17;;;2.40;99.90;;;;;;5145268;27;20043;-76
2022/01/26 05:26:18;;;;;;;67.07;32.42;;;2.40;99.90;;;;;;5128994;27;20135;-77
2022/01/26 05:28:44;;;;;;;83.15;37.25;;;2.40;99.90;;;;;;5132081;27;20469;-77
2022/01/26 05:31:11;;;;;;;79.05;36.30;;;2.40;99.90;;;;;;5136264;27;20047;-77
2022/01/26 05:33:37;;;;;;;85.55;37.92;;;2.40;99.90;;;;;;5125769;27;20047;-78
2022/01/26 05:36:04;;;;;;;78.55;35.00;;;2.40;99.90;;;;;;5118254;27;20047;-78
2022/01/26 05:38:30;;;;;;;71.72;35.92;;;2.40;99.90;;;;;;5143177;27;20050;-76
2022/01/26 05:41:00;;;;;;;82.32;36.60;;;2.40;99.90;;;;;;5128105;27;20046;-77
2022/01/26 05:43:27;;;;;;;81.00;39.72;;;2.40;99.90;;;;;;5130754;27;20498;-77
2022/01/26 05:45:57;;;;;;;81.97;36.88;;;2.40;99.90;;;;;;5148389;27;20051;-77
2022/01/26 05:48:23;;;;;;;75.87;36.23;;;2.40;99.90;;;;;;5117041;27;20107;-77
2022/01/26 05:50:52;;;;;;;78.95;34.90;;;2.40;99.90;;;;;;5146326;27;20054;-77
2022/01/26 05:53:21;;;;;;;75.55;36.30;;;2.40;99.90;;;;;;5126739;27;20405;-77
2022/01/26 05:55:47;;;;;;;85.40;40.10;;;2.30;99.90;;;;;;5152719;27;20055;-77
2022/01/26 05:58:14;;;;;;;74.72;37.03;;;2.30;99.90;;;;;;5119442;27;20058;-76
2022/01/26 06:00:40;;;;;;;75.32;36.08;;;2.30;99.90;;;;;;5096277;28;20052;-77
2022/01/26 06:03:07;;;;;;;80.95;35.83;;;2.30;99.90;;;;;;5097773;28;20098;-77
2022/01/26 06:05:33;;;;;;;85.68;37.78;;;2.30;99.90;;;;;;5096556;28;20050;-77
2022/01/26 06:08:00;;;;;;;74.30;36.60;;;2.30;99.90;;;;;;5105489;28;20047;-77
2022/01/26 06:10:26;;;;;;;84.20;36.38;;;2.30;99.90;;;;;;5101060;28;20062;-77
2022/01/26 06:12:53;;;;;;;81.25;35.00;;;2.30;99.90;;;;;;5103115;28;20071;-77
2022/01/26 06:15:20;;;;;;;71.25;32.75;;;2.30;99.90;;;;;;5092244;28;20051;-77
2022/01/26 06:17:47;;;;;;;79.53;37.40;;;2.30;99.90;;;;;;5103205;28;20099;-77
2022/01/26 06:20:13;;;;;;;85.03;36.70;;;2.20;99.90;;;;;;5108543;28;20043;-77
2022/01/26 06:22:40;;;;;;;82.32;37.20;;;2.30;99.90;;;;;;5097934;28;20055;-77
2022/01/26 06:25:07;;;;;;;82.43;36.35;;;2.20;99.90;;;;;;5102770;28;20067;-77
2022/01/26 06:27:34;;;;;;;87.07;36.55;;;2.20;99.90;;;;;;5095072;28;20056;-77
2022/01/26 06:30:00;;;;;;;78.47;33.67;;;2.20;99.90;;;;;;5094716;28;20050;-77
2022/01/26 06:32:27;;;;;;;75.82;38.03;;;2.20;99.90;;;;;;5103595;28;20055;-76
2022/01/26 06:34:53;;;;;;;82.75;36.35;;;2.20;99.90;;;;;;5095975;28;20058;-77
2022/01/26 06:37:20;;;;;;;63.53;34.17;;;2.20;99.90;;;;;;5108112;28;20048;-77
2022/01/26 06:39:46;;;;;;;79.75;37.55;;;2.20;99.90;;;;;;5100768;28;20047;-77
2022/01/26 06:42:16;;;;;;;72.82;35.33;;;2.20;99.90;;;;;;5102058;28;20047;-77
2022/01/26 06:44:52;;;;;;;70.88;34.97;;;2.20;99.90;;;;;;5111258;28;20487;-77
2022/01/26 06:47:34;;;;;;;78.25;36.72;;;2.20;99.90;;;;;;5111200;28;20063;-77
2022/01/26 06:50:00;;;;;;;62.75;33.42;;;2.10;99.90;;;;;;5098789;28;20402;-77
2022/01/26 06:52:27;;;;;;;66.07;33.95;;;2.10;99.90;;;;;;5103082;28;20650;-76
2022/01/26 06:54:53;;;;;;;77.95;35.15;;;2.10;99.90;;;;;;5096510;28;20047;-77
2022/01/26 06:57:20;;;;;;;80.95;34.55;;;2.10;99.90;;;;;;5098122;28;20051;-77
2022/01/26 06:59:46;;;;;;;82.72;34.88;;;2.10;99.90;;;;;;5102425;28;20063;-77
2022/01/26 07:02:13;;;;;;;73.18;35.03;;;2.10;99.90;;;;;;5121060;28;20054;-77
2022/01/26 07:04:39;;;;;;;81.50;36.55;;;2.10;99.90;;;;;;5126723;28;20062;-75
2022/01/26 07:07:06;;;;;;;68.05;33.05;;;2.10;99.90;;;;;;5118591;28;20055;-77
2022/01/26 07:09:32;;;;;;;77.47;33.92;;;2.10;99.90;;;;;;5122654;28;20448;-77
2022/01/26 07:11:59;;;;;;;76.45;33.42;;;2.10;99.90;;;;;;5124847;28;20050;-77
2022/01/26 07:19:46;;;;;;;83.20;35.58;;;2.10;99.90;;;;;;5112648;28;20043;-78
2022/01/26 07:20:33;;;;;;;80.30;35.72;;;2.00;99.90;;;;;;5126096;28;20409;-77
2022/01/26 07:22:49;;;;;;;68.65;34.75;;;2.10;99.90;;;;;;5126002;28;20598;-77
2022/01/26 07:25:15;;;;;;;72.05;34.85;;;2.10;99.90;;;;;;5125980;28;20051;-77
2022/01/26 07:27:42;;;;;;;74.85;36.53;;;2.10;99.90;;;;;;5125944;28;20475;-77
2022/01/26 07:30:09;;;;;;;74.70;34.53;;;2.10;99.90;;;;;;5128082;28;20075;-78
2022/01/26 07:32:37;;;;;;;82.25;34.08;;;2.10;99.90;;;;;;5126190;28;20050;-77
2022/01/26 07:35:03;;;;;;;82.38;35.80;;;2.10;99.90;;;;;;5127629;28;20079;-77
2022/01/26 07:37:30;;;;;;;65.63;31.77;;;2.10;99.90;;;;;;5119988;28;20125;-76
2022/01/26 07:40:04;;;;;;;82.20;34.80;;;2.20;99.90;;;;;;5125441;28;20070;-77
2022/01/26 07:42:31;;;;;;;81.53;36.95;;;2.10;99.90;;;;;;5127520;28;20040;-77
2022/01/26 07:44:57;;;;;;;76.68;33.55;;;2.10;99.90;;;;;;5125111;27;20043;-77
2022/01/26 07:47:24;;;;;;;74.82;34.58;;;2.10;99.90;;;;;;5130527;27;20039;-77
2022/01/26 07:49:53;;;;;;;84.40;36.03;;;2.10;99.90;;;;;;5127275;27;20043;-78
2022/01/26 07:52:19;;;;;;;79.47;37.50;;;2.10;99.90;;;;;;5126089;27;20072;-77
2022/01/26 07:54:48;;;;;;;81.45;35.10;;;2.10;99.90;;;;;;5129772;27;20044;-76
2022/01/26 07:57:15;;;;;;;76.90;33.47;;;2.20;99.90;;;;;;5126236;27;20047;-77
2022/01/26 07:59:41;;;;;;;74.47;34.38;;;2.10;99.90;;;;;;5141794;27;20047;-77
2022/01/26 08:02:08;;;;;;;83.55;36.33;;;2.20;99.90;;;;;;5150657;27;20050;-77
2022/01/26 08:04:34;;;;;;;92.80;36.47;;;2.20;99.90;;;;;;5133689;27;20050;-77
2022/01/26 08:07:01;;;;;;;77.72;33.92;;;2.20;99.90;;;;;;5129033;27;20113;-77
2022/01/26 08:09:28;;;;;;;74.60;36.88;;;2.20;99.90;;;;;;5131310;27;20122;-76
2022/01/26 08:11:54;;;;;;;79.25;36.03;;;2.20;99.90;;;;;;5130777;27;20053;-77
2022/01/26 08:14:21;;;;;;;79.22;35.20;;;2.20;99.90;;;;;;5145968;27;20039;-77
2022/01/26 08:16:47;;;;;;;75.38;35.80;;;2.20;99.90;;;;;;5134168;27;20134;-76
2022/01/26 08:19:14;;;;;;;78.28;38.95;;;2.20;99.90;;;;;;5148672;27;20493;-78
2022/01/26 08:21:42;;;;;;;75.05;36.30;;;2.20;99.90;;;;;;5154824;27;20035;-77
2022/01/26 08:24:13;;;;;;;75.80;34.28;;;2.20;99.90;;;;;;5128940;27;20513;-77
2022/01/26 08:26:43;;;;;;;77.50;36.70;;;2.20;99.90;;;;;;5129913;27;20070;-77
2022/01/26 08:29:15;;;;;;;82.93;39.20;;;2.20;99.90;;;;;;5133858;27;20523;-77
2022/01/26 08:31:42;;;;;;;72.22;35.10;;;2.30;99.90;;;;;;5133266;27;20409;-77
2022/01/26 08:34:09;;;;;;;73.97;36.47;;;2.30;99.90;;;;;;5131673;27;20043;-75
2022/01/26 08:36:35;;;;;;;74.32;36.63;;;2.30;99.90;;;;;;5125115;27;20286;-77
2022/01/26 08:39:02;;;;;;;79.85;37.53;;;2.30;99.90;;;;;;5130093;27;20077;-77
2022/01/26 08:41:28;;;;;;;85.95;38.08;;;2.30;99.90;;;;;;5151322;27;20122;-77
2022/01/26 08:43:55;;;;;;;79.63;39.08;;;2.30;99.90;;;;;;5126512;27;20055;-77
2022/01/26 08:46:22;;;;;;;87.55;38.38;;;2.30;99.90;;;;;;5135749;27;20457;-77
2022/01/26 08:48:48;;;;;;;83.00;39.72;;;2.30;99.90;;;;;;5133107;27;20047;-77
2022/01/26 08:51:15;;;;;;;81.75;35.05;;;2.30;99.90;;;;;;5125005;27;20051;-78
2022/01/26 08:53:41;;;;;;;95.60;39.03;;;2.30;99.90;;;;;;5146781;27;20054;-77
2022/01/26 08:56:08;;;;;;;79.15;39.70;;;2.40;99.90;;;;;;5130490;27;20049;-77
2022/01/26 08:58:34;;;;;;;85.55;38.65;;;2.30;99.90;;;;;;5128481;27;20062;-76
2022/01/26 09:01:01;;;;;;;94.32;40.20;;;2.40;99.90;;;;;;5129846;27;20047;-76
2022/01/26 09:03:27;;;;;;;85.43;39.75;;;2.40;99.90;;;;;;5130005;27;20054;-77
2022/01/26 09:05:54;;;;;;;97.78;44.80;;;2.40;99.90;;;;;;5144305;27;20065;-77
2022/01/26 09:08:20;;;;;;;94.88;41.70;;;2.30;99.90;;;;;;5131576;27;20039;-77
2022/01/26 09:10:47;;;;;;;96.80;40.67;;;2.40;99.90;;;;;;5129032;27;20129;-77
2022/01/26 09:13:14;;;;;;;107.60;44.22;;;2.40;99.90;;;;;;5132059;27;20404;-77
2022/01/26 09:15:41;;;;;;;95.75;41.97;;;2.40;99.90;;;;;;5133626;27;20409;-77
2022/01/26 09:18:13;;;;;;;89.03;42.60;;;2.40;99.90;;;;;;5130990;27;20489;-76
2022/01/26 09:20:39;;;;;;;91.13;43.63;;;2.40;99.90;;;;;;5127917;27;20058;-78
2022/01/26 09:23:06;;;;;;;101.38;42.70;;;2.40;99.90;;;;;;5131715;27;20057;-77
2022/01/26 09:25:32;;;;;;;88.18;41.67;;;2.40;99.90;;;;;;5130759;27;20066;-77
2022/01/26 09:27:59;;;;;;;91.13;44.00;;;2.40;99.90;;;;;;5130620;27;20051;-77
2022/01/26 09:30:26;;;;;;;87.95;43.17;;;2.50;99.90;;;;;;5126749;27;20488;-77
2022/01/26 09:32:52;;;;;;;95.13;47.72;;;2.50;99.90;;;;;;5130620;27;21223;-78
2022/01/26 09:35:19;;;;;;;92.85;43.72;;;2.50;99.90;;;;;;5131114;27;20492;-78
2022/01/26 09:37:45;;;;;;;96.85;44.30;;;2.50;99.90;;;;;;5145678;27;20386;-77
2022/01/26 09:40:12;;;;;;;84.22;44.78;;;2.50;99.90;;;;;;5125417;27;20494;-77
2022/01/26 09:42:38;;;;;;;100.70;45.67;;;2.50;99.90;;;;;;5128885;27;20050;-77
2022/01/26 09:45:05;;;;;;;106.00;45.65;;;2.50;99.90;;;;;;5130536;27;20057;-77
2022/01/26 09:47:31;;;;;;;104.68;45.92;;;2.50;99.90;;;;;;5149209;27;20050;-78
2022/01/26 09:49:58;;;;;;;100.93;44.83;;;2.50;99.90;;;;;;5131007;27;20602;-78
2022/01/26 09:52:32;;;;;;;98.00;46.03;;;2.60;99.90;;;;;;5131453;27;20042;-78
2022/01/26 09:54:58;;;;;;;106.53;48.42;;;2.60;99.90;;;;;;5130243;27;20063;-77
2022/01/26 09:57:25;;;;;;;105.03;48.30;;;2.60;99.90;;;;;;5135033;27;20053;-77
2022/01/26 09:59:51;;;;;;;105.95;47.08;;;2.60;99.90;;;;;;5148872;27;20056;-76
2022/01/26 10:02:18;;;;;;;105.95;51.05;;;2.60;99.90;;;;;;5129931;27;20039;-77
2022/01/26 10:04:44;;;;;;;104.75;49.17;;;2.70;99.90;;;;;;5143327;27;20055;-78
2022/01/26 10:07:20;;;;;;;102.93;49.28;;;2.70;99.90;;;;;;5129785;27;20055;-77
2022/01/26 10:10:02;;;;;;;105.53;50.28;;;2.70;99.90;;;;;;5125173;27;20054;-77
2022/01/26 10:15:35;;;;;;;109.88;50.20;;;2.70;99.90;;;;;;5128331;27;20051;-77
2022/01/26 10:18:02;;;;;;;109.40;52.25;;;2.80;99.90;;;;;;5122561;27;20467;-76
2022/01/26 10:20:29;;;;;;;99.05;48.20;;;2.80;99.90;;;;;;5129281;27;20164;-77
2022/01/26 10:22:56;;;;;;;107.32;52.55;;;2.80;99.90;;;;;;5117688;27;20059;-77
2022/01/26 10:25:22;;;;;;;100.38;51.80;;;2.90;99.90;;;;;;5126064;27;20043;-78
2022/01/26 10:27:49;;;;;;;107.57;52.33;;;2.90;99.90;;;;;;5123982;27;20039;-77
2022/01/26 10:30:15;;;;;;;96.07;49.10;;;2.90;99.90;;;;;;5147230;27;20046;-77
2022/01/26 10:32:42;;;;;;;118.25;52.28;;;2.90;99.90;;;;;;5147584;27;20138;-77
2022/01/26 10:35:08;;;;;;;107.03;51.50;;;3.00;99.90;;;;;;5149492;27;20093;-77
2022/01/26 10:37:35;;;;;;;99.10;52.92;;;3.00;99.90;;;;;;5131148;27;20046;-75
2022/01/26 10:40:01;;;;;;;108.80;51.20;;;3.10;99.90;;;;;;5141462;27;20042;-77
2022/01/26 10:42:28;;;;;;;118.47;53.42;;;3.10;99.90;;;;;;5148555;27;20050;-77
2022/01/26 10:45:06;;;;;;;113.28;55.45;;;3.10;99.90;;;;;;5144231;27;20050;-78
2022/01/26 10:47:35;;;;;;;122.55;57.22;;;3.20;99.90;;;;;;5126220;27;20085;-77
2022/01/26 10:50:30;;;;;;;110.05;51.90;;;3.10;99.90;;;;;;5128783;27;20042;-76
2022/01/26 10:52:56;;;;;;;113.50;54.17;;;3.20;99.90;;;;;;5120539;27;20057;-77
2022/01/26 10:55:22;;;;;;;105.45;52.35;;;3.20;99.90;;;;;;5116649;27;20130;-76
2022/01/26 10:57:49;;;;;;;110.78;50.30;;;3.30;99.90;;;;;;5125680;27;20050;-77
2022/01/26 11:00:15;;;;;;;105.38;49.72;;;3.30;99.90;;;;;;5124000;28;20055;-76
2022/01/26 11:02:47;;;;;;;102.53;48.45;;;3.30;99.90;;;;;;5130555;27;20050;-77
2022/01/26 11:05:14;;;;;;;98.07;49.45;;;3.30;99.90;;;;;;5129684;27;20049;-77
2022/01/26 11:07:41;;;;;;;127.15;48.70;;;3.30;99.90;;;;;;5131961;27;20053;-78
2022/01/26 11:10:07;;;;;;;107.05;48.78;;;3.40;99.90;;;;;;5140181;27;20051;-78
2022/01/26 11:12:34;;;;;;;112.75;51.22;;;3.40;99.90;;;;;;5132836;27;20092;-78
2022/01/26 11:15:01;;;;;;;98.90;50.30;;;3.40;99.90;;;;;;5132662;27;20405;-77
2022/01/26 11:17:27;;;;;;;112.57;52.88;;;3.40;99.90;;;;;;5132598;27;20410;-78
2022/01/26 11:19:54;;;;;;;115.70;52.95;;;3.40;99.90;;;;;;5119896;27;20053;-78
2022/01/26 11:22:26;;;;;;;100.05;47.67;;;3.50;99.90;;;;;;5132755;27;20046;-78
2022/01/26 11:24:53;;;;;;;92.85;48.17;;;3.50;99.90;;;;;;5153876;27;20122;-77
2022/01/26 11:27:19;;;;;;;98.47;48.75;;;3.50;99.90;;;;;;5137479;27;20046;-77
2022/01/26 11:29:48;;;;;;;98.10;48.70;;;3.50;99.90;;;;;;5134354;27;20050;-77
2022/01/26 11:32:19;;;;;;;103.43;52.88;;;3.50;99.90;;;;;;5131366;27;20050;-77
2022/01/26 11:34:45;;;;;;;104.60;51.67;;;3.50;99.90;;;;;;5151211;27;20051;-78
2022/01/26 11:37:13;;;;;;;116.10;51.08;;;3.50;99.90;;;;;;5135521;27;20035;-78
2022/01/26 11:45:04;;;;;;;92.75;46.22;;;3.50;99.90;;;;;;5127335;27;20122;-77
2022/01/26 11:45:26;;;;;;;104.72;51.33;;;3.50;99.90;;;;;;5132905;27;20047;-77
2022/01/26 11:47:53;;;;;;;111.00;48.88;;;3.50;99.90;;;;;;5132596;27;20043;-77
2022/01/26 11:50:20;;;;;;;102.88;49.85;;;3.50;99.90;;;;;;5152438;27;20063;-76
2022/01/26 11:52:46;;;;;;;132.30;60.88;;;3.60;99.90;;;;;;5128812;27;20055;-77
2022/01/26 11:55:13;;;;;;;130.65;59.97;;;3.50;99.90;;;;;;5126573;27;20047;-77
2022/01/26 11:57:39;;;;;;;148.38;57.05;;;3.60;99.90;;;;;;5153572;27;20062;-77
2022/01/26 12:00:09;;;;;;;114.70;54.22;;;3.60;99.90;;;;;;5126337;27;20567;-76
2022/01/26 12:02:43;;;;;;;128.40;58.88;;;3.50;99.90;;;;;;5148450;27;20097;-77
2022/01/26 12:05:12;;;;;;;136.15;61.95;;;3.60;99.90;;;;;;5129058;27;20085;-77
2022/01/26 12:07:39;;;;;;;117.18;56.45;;;3.50;99.90;;;;;;5122131;27;20054;-77
2022/01/26 12:10:05;;;;;;;128.50;54.33;;;3.50;99.90;;;;;;5135923;27;20064;-77
2022/01/26 12:12:35;;;;;;;112.28;51.83;;;3.50;99.90;;;;;;5126450;27;20059;-76
2022/01/26 12:15:01;;;;;;;111.85;51.58;;;3.50;99.90;;;;;;5127248;27;20134;-76
2022/01/26 12:17:33;;;;;;;96.75;50.63;;;3.50;99.90;;;;;;5145933;27;20131;-77
2022/01/26 12:20:10;;;;;;;100.40;48.80;;;3.60;99.90;;;;;;5117795;27;20220;-76
2022/01/26 12:36:25;;;;;;;141.80;59.22;;;3.90;99.90;;;;;;5136091;27;20097;-77
2022/01/26 12:38:51;;;;;;;111.03;51.78;;;3.90;99.90;;;;;;5125330;27;20055;-76
2022/01/26 12:41:29;;;;;;;107.03;48.00;;;3.90;99.90;;;;;;5129272;27;20047;-77
2022/01/26 12:43:55;;;;;;;102.30;46.40;;;3.90;99.90;;;;;;5125342;27;20062;-76
2022/01/26 12:46:22;;;;;;;100.28;46.50;;;3.80;99.90;;;;;;5133843;27;20039;-76
2022/01/26 12:48:48;;;;;;;117.45;50.75;;;3.80;99.90;;;;;;5121350;27;20050;-75
2022/01/26 12:51:15;;;;;;;119.47;52.42;;;3.90;99.90;;;;;;5122762;27;20047;-77
2022/01/26 12:53:41;;;;;;;101.28;47.88;;;3.90;99.90;;;;;;5145303;27;20058;-76
2022/01/26 12:56:08;;;;;;;106.43;44.03;;;3.90;99.90;;;;;;5145404;27;20050;-77
2022/01/26 12:58:35;;;;;;;85.85;42.22;;;3.90;99.90;;;;;;5128364;27;20383;-78
2022/01/26 13:01:01;;;;;;;89.28;42.63;;;3.90;99.90;;;;;;5123667;27;20498;-76
2022/01/26 13:03:28;;;;;;;96.75;41.95;;;3.90;99.90;;;;;;5131728;27;20047;-77
2022/01/26 13:05:54;;;;;;;108.68;44.28;;;3.90;99.90;;;;;;5148043;27;20043;-77
2022/01/26 13:08:21;;;;;;;96.05;42.05;;;3.90;99.90;;;;;;5129039;27;20477;-76
2022/01/26 13:10:47;;;;;;;97.70;42.25;;;3.90;99.90;;;;;;5132926;27;20065;-75
2022/01/26 13:13:14;;;;;;;87.00;42.17;;;3.90;99.90;;;;;;5133816;27;20107;-76
2022/01/26 13:15:47;;;;;;;93.07;43.33;;;3.90;99.90;;;;;;5141616;27;20057;-77
2022/01/26 13:18:16;;;;;;;93.18;42.75;;;3.90;99.90;;;;;;5131898;27;20047;-76
2022/01/26 13:20:57;;;;;;;88.22;38.83;;;3.90;99.90;;;;;;5145049;27;20058;-77
2022/01/26 13:23:33;;;;;;;88.15;40.25;;;4.00;99.90;;;;;;5120383;27;20051;-76
2022/01/26 13:26:09;;;;;;;95.22;43.60;;;4.00;99.90;;;;;;5122866;27;20051;-77
2022/01/26 13:28:46;;;;;;;80.32;40.25;;;3.90;99.90;;;;;;5134575;27;20069;-79
2022/01/26 13:31:47;;;;;;;95.20;46.20;;;4.00;99.90;;;;;;5121313;27;20047;-77
2022/01/26 13:37:05;;;;;;;101.95;50.22;;;4.00;99.90;;;;;;5118691;27;20042;-76
2022/01/26 13:39:43;;;;;;;106.03;48.53;;;4.00;99.90;;;;;;5151827;27;20103;-76
2022/01/26 13:42:48;;;;;;;109.90;50.60;;;4.00;99.90;;;;;;5123867;27;20043;-77
2022/01/26 13:48:39;;;;;;;111.85;48.20;;;4.00;99.90;;;;;;5151792;27;20042;-77
2022/01/26 13:51:12;;;;;;;96.55;47.30;;;4.00;99.90;;;;;;5119383;27;20043;-77
2022/01/26 13:53:50;;;;;;;107.50;50.83;;;4.00;99.90;;;;;;5143855;27;20555;-80
2022/01/26 13:56:29;;;;;;;107.88;46.13;;;4.10;99.90;;;;;;5127708;27;20122;-77
2022/01/26 13:59:08;;;;;;;97.40;47.42;;;4.10;99.90;;;;;;5140452;27;20086;-77
2022/01/26 14:01:37;;;;;;;99.63;46.65;;;4.00;99.90;;;;;;5117174;27;20055;-77
2022/01/26 14:04:05;;;;;;;94.88;41.30;;;4.10;99.90;;;;;;5124467;27;20492;-77
2022/01/26 14:06:32;;;;;;;95.00;41.63;;;4.10;99.90;;;;;;5116039;27;20078;-77
2022/01/26 14:08:59;;;;;;;100.20;41.72;;;4.10;99.90;;;;;;5132561;27;20808;-77